sensor_id;sensor_type;location;lat;lon;timestamp;P1;durP1;ratioP1;P2;durP2;ratioP2
77010;SDS011;65945;53.148;17.956;2023-11-18T00:00:36;14.90;;;8.20;;
77010;SDS011;65945;53.148;17.956;2023-11-18T00:03:23;18.20;;;9.60;;
77010;SDS011;65945;53.148;17.956;2023-11-18T00:05:49;16.10;;;9.10;;
77010;SDS011;65945;53.148;17.956;2023-11-18T00:08:16;19.30;;;10.40;;
77010;SDS011;65945;53.148;17.956;2023-11-18T00:10:43;18.10;;;10.50;;
77010;SDS011;65945;53.148;17.956;2023-11-18T00:13:09;19.70;;;10.50;;
77010;SDS011;65945;53.148;17.956;2023-11-18T00:15:36;20.30;;;11.40;;
77010;SDS011;65945;53.148;17.956;2023-11-18T00:18:02;19.60;;;10.80;;
77010;SDS011;65945;53.148;17.956;2023-11-18T00:20:29;19.60;;;9.80;;
77010;SDS011;65945;53.148;17.956;2023-11-18T00:22:57;17.20;;;9.50;;
77010;SDS011;65945;53.148;17.956;2023-11-18T00:25:23;20.80;;;10.90;;
77010;SDS011;65945;53.148;17.956;2023-11-18T00:27:50;18.50;;;10.40;;
77010;SDS011;65945;53.148;17.956;2023-11-18T00:30:17;22.50;;;11.80;;
77010;SDS011;65945;53.148;17.956;2023-11-18T00:32:43;21.10;;;12.10;;
77010;SDS011;65945;53.148;17.956;2023-11-18T00:35:10;21.10;;;10.30;;
77010;SDS011;65945;53.148;17.956;2023-11-18T00:37:37;21.70;;;10.40;;
77010;SDS011;65945;53.148;17.956;2023-11-18T00:40:03;18.30;;;10.10;;
77010;SDS011;65945;53.148;17.956;2023-11-18T00:42:31;20.80;;;10.20;;
77010;SDS011;65945;53.148;17.956;2023-11-18T00:44:57;21.10;;;10.90;;
77010;SDS011;65945;53.148;17.956;2023-11-18T00:47:24;22.00;;;12.10;;
77010;SDS011;65945;53.148;17.956;2023-11-18T00:49:51;25.60;;;11.80;;
77010;SDS011;65945;53.148;17.956;2023-11-18T00:52:19;22.10;;;11.30;;
77010;SDS011;65945;53.148;17.956;2023-11-18T00:54:46;23.80;;;12.00;;
77010;SDS011;65945;53.148;17.956;2023-11-18T00:57:12;25.00;;;11.60;;
77010;SDS011;65945;53.148;17.956;2023-11-18T00:59:43;30.20;;;13.30;;
77010;SDS011;65945;53.148;17.956;2023-11-18T01:02:10;31.50;;;13.00;;
77010;SDS011;65945;53.148;17.956;2023-11-18T01:04:37;23.10;;;11.60;;
77010;SDS011;65945;53.148;17.956;2023-11-18T01:07:04;26.70;;;12.60;;
77010;SDS011;65945;53.148;17.956;2023-11-18T01:09:30;28.90;;;12.70;;
77010;SDS011;65945;53.148;17.956;2023-11-18T01:12:03;27.00;;;13.50;;
77010;SDS011;65945;53.148;17.956;2023-11-18T01:14:30;26.20;;;12.40;;
77010;SDS011;65945;53.148;17.956;2023-11-18T01:16:57;26.70;;;13.10;;
77010;SDS011;65945;53.148;17.956;2023-11-18T01:19:24;28.00;;;12.50;;
77010;SDS011;65945;53.148;17.956;2023-11-18T01:21:51;29.30;;;13.40;;
77010;SDS011;65945;53.148;17.956;2023-11-18T01:24:19;28.10;;;14.40;;
77010;SDS011;65945;53.148;17.956;2023-11-18T01:26:46;27.80;;;13.30;;
77010;SDS011;65945;53.148;17.956;2023-11-18T01:29:13;24.80;;;13.10;;
77010;SDS011;65945;53.148;17.956;2023-11-18T01:31:40;21.60;;;11.60;;
77010;SDS011;65945;53.148;17.956;2023-11-18T01:34:07;32.90;;;15.10;;
77010;SDS011;65945;53.148;17.956;2023-11-18T01:36:34;28.20;;;14.70;;
77010;SDS011;65945;53.148;17.956;2023-11-18T01:39:00;31.60;;;14.90;;
77010;SDS011;65945;53.148;17.956;2023-11-18T01:41:27;26.90;;;13.60;;
77010;SDS011;65945;53.148;17.956;2023-11-18T01:43:58;29.60;;;15.30;;
77010;SDS011;65945;53.148;17.956;2023-11-18T01:46:26;26.00;;;13.10;;
77010;SDS011;65945;53.148;17.956;2023-11-18T01:48:54;29.80;;;15.00;;
77010;SDS011;65945;53.148;17.956;2023-11-18T01:51:21;25.70;;;12.20;;
77010;SDS011;65945;53.148;17.956;2023-11-18T01:53:49;27.30;;;13.20;;
77010;SDS011;65945;53.148;17.956;2023-11-18T01:56:16;27.60;;;15.30;;
77010;SDS011;65945;53.148;17.956;2023-11-18T01:58:43;30.10;;;14.70;;
77010;SDS011;65945;53.148;17.956;2023-11-18T02:01:10;35.40;;;17.40;;
77010;SDS011;65945;53.148;17.956;2023-11-18T02:03:37;27.30;;;14.50;;
77010;SDS011;65945;53.148;17.956;2023-11-18T02:06:04;33.50;;;16.10;;
77010;SDS011;65945;53.148;17.956;2023-11-18T02:08:33;33.30;;;16.80;;
77010;SDS011;65945;53.148;17.956;2023-11-18T02:11:04;32.40;;;15.00;;
77010;SDS011;65945;53.148;17.956;2023-11-18T02:13:38;27.30;;;12.40;;
77010;SDS011;65945;53.148;17.956;2023-11-18T02:16:09;29.80;;;14.30;;
77010;SDS011;65945;53.148;17.956;2023-11-18T02:18:37;28.40;;;12.90;;
77010;SDS011;65945;53.148;17.956;2023-11-18T02:21:06;30.70;;;13.00;;
77010;SDS011;65945;53.148;17.956;2023-11-18T02:23:37;30.30;;;15.10;;
77010;SDS011;65945;53.148;17.956;2023-11-18T02:28:51;29.20;;;14.50;;
77010;SDS011;65945;53.148;17.956;2023-11-18T02:31:26;28.10;;;14.40;;
77010;SDS011;65945;53.148;17.956;2023-11-18T02:34:00;30.20;;;15.00;;
77010;SDS011;65945;53.148;17.956;2023-11-18T02:36:43;32.60;;;15.20;;
77010;SDS011;65945;53.148;17.956;2023-11-18T02:39:13;31.80;;;16.30;;
77010;SDS011;65945;53.148;17.956;2023-11-18T02:41:48;28.50;;;13.80;;
77010;SDS011;65945;53.148;17.956;2023-11-18T02:44:18;32.10;;;15.00;;
77010;SDS011;65945;53.148;17.956;2023-11-18T02:46:49;30.80;;;15.30;;
77010;SDS011;65945;53.148;17.956;2023-11-18T02:49:16;32.80;;;15.70;;
77010;SDS011;65945;53.148;17.956;2023-11-18T02:51:43;34.50;;;15.90;;
77010;SDS011;65945;53.148;17.956;2023-11-18T02:54:14;31.00;;;15.00;;
77010;SDS011;65945;53.148;17.956;2023-11-18T02:56:42;34.50;;;16.50;;
77010;SDS011;65945;53.148;17.956;2023-11-18T02:59:09;28.40;;;13.40;;
77010;SDS011;65945;53.148;17.956;2023-11-18T03:01:37;27.00;;;13.70;;
77010;SDS011;65945;53.148;17.956;2023-11-18T03:04:07;34.60;;;16.00;;
77010;SDS011;65945;53.148;17.956;2023-11-18T03:06:34;30.60;;;15.20;;
77010;SDS011;65945;53.148;17.956;2023-11-18T03:09:02;29.50;;;13.80;;
77010;SDS011;65945;53.148;17.956;2023-11-18T03:11:33;27.30;;;13.60;;
77010;SDS011;65945;53.148;17.956;2023-11-18T03:14:00;28.60;;;12.90;;
77010;SDS011;65945;53.148;17.956;2023-11-18T03:16:27;28.00;;;13.10;;
77010;SDS011;65945;53.148;17.956;2023-11-18T03:18:53;27.90;;;13.10;;
77010;SDS011;65945;53.148;17.956;2023-11-18T03:21:21;24.00;;;10.70;;
77010;SDS011;65945;53.148;17.956;2023-11-18T03:23:48;23.50;;;11.70;;
77010;SDS011;65945;53.148;17.956;2023-11-18T03:26:14;30.80;;;13.40;;
77010;SDS011;65945;53.148;17.956;2023-11-18T03:28:41;30.60;;;14.80;;
77010;SDS011;65945;53.148;17.956;2023-11-18T03:31:07;33.30;;;15.70;;
77010;SDS011;65945;53.148;17.956;2023-11-18T03:33:35;29.40;;;14.50;;
77010;SDS011;65945;53.148;17.956;2023-11-18T03:36:02;34.60;;;16.50;;
77010;SDS011;65945;53.148;17.956;2023-11-18T03:38:29;33.10;;;16.20;;
77010;SDS011;65945;53.148;17.956;2023-11-18T03:40:56;30.30;;;15.20;;
77010;SDS011;65945;53.148;17.956;2023-11-18T03:43:25;29.60;;;14.20;;
77010;SDS011;65945;53.148;17.956;2023-11-18T03:45:51;31.50;;;14.30;;
77010;SDS011;65945;53.148;17.956;2023-11-18T03:48:23;32.80;;;16.20;;
77010;SDS011;65945;53.148;17.956;2023-11-18T03:50:50;30.10;;;14.50;;
77010;SDS011;65945;53.148;17.956;2023-11-18T03:53:17;32.50;;;14.50;;
77010;SDS011;65945;53.148;17.956;2023-11-18T03:55:43;29.60;;;14.40;;
77010;SDS011;65945;53.148;17.956;2023-11-18T03:58:10;29.50;;;15.30;;
77010;SDS011;65945;53.148;17.956;2023-11-18T04:00:37;28.80;;;14.40;;
77010;SDS011;65945;53.148;17.956;2023-11-18T04:03:03;30.70;;;15.60;;
77010;SDS011;65945;53.148;17.956;2023-11-18T04:05:33;26.90;;;13.70;;
77010;SDS011;65945;53.148;17.956;2023-11-18T04:08:01;29.00;;;15.30;;
77010;SDS011;65945;53.148;17.956;2023-11-18T04:10:27;31.80;;;14.90;;
77010;SDS011;65945;53.148;17.956;2023-11-18T04:12:54;31.40;;;14.60;;
77010;SDS011;65945;53.148;17.956;2023-11-18T04:15:20;30.10;;;14.80;;
77010;SDS011;65945;53.148;17.956;2023-11-18T04:17:47;28.20;;;13.30;;
77010;SDS011;65945;53.148;17.956;2023-11-18T04:20:14;31.00;;;14.30;;
77010;SDS011;65945;53.148;17.956;2023-11-18T04:22:42;30.40;;;14.00;;
77010;SDS011;65945;53.148;17.956;2023-11-18T04:25:10;30.70;;;14.20;;
77010;SDS011;65945;53.148;17.956;2023-11-18T04:27:38;27.80;;;13.70;;
77010;SDS011;65945;53.148;17.956;2023-11-18T04:30:05;26.60;;;13.90;;
77010;SDS011;65945;53.148;17.956;2023-11-18T04:32:32;23.60;;;12.90;;
77010;SDS011;65945;53.148;17.956;2023-11-18T04:34:59;26.90;;;14.10;;
77010;SDS011;65945;53.148;17.956;2023-11-18T04:37:26;28.00;;;13.60;;
77010;SDS011;65945;53.148;17.956;2023-11-18T04:39:53;27.30;;;13.70;;
77010;SDS011;65945;53.148;17.956;2023-11-18T04:42:21;26.00;;;13.40;;
77010;SDS011;65945;53.148;17.956;2023-11-18T04:44:48;28.00;;;14.00;;
77010;SDS011;65945;53.148;17.956;2023-11-18T04:47:15;24.60;;;13.10;;
77010;SDS011;65945;53.148;17.956;2023-11-18T04:49:46;23.70;;;11.10;;
77010;SDS011;65945;53.148;17.956;2023-11-18T04:52:13;26.70;;;13.40;;
77010;SDS011;65945;53.148;17.956;2023-11-18T04:54:39;25.10;;;12.80;;
77010;SDS011;65945;53.148;17.956;2023-11-18T04:57:06;31.60;;;14.20;;
77010;SDS011;65945;53.148;17.956;2023-11-18T04:59:35;27.50;;;13.60;;
77010;SDS011;65945;53.148;17.956;2023-11-18T05:02:02;30.10;;;13.50;;
77010;SDS011;65945;53.148;17.956;2023-11-18T05:04:29;25.80;;;13.50;;
77010;SDS011;65945;53.148;17.956;2023-11-18T05:06:56;23.60;;;11.90;;
77010;SDS011;65945;53.148;17.956;2023-11-18T05:09:23;25.50;;;12.30;;
77010;SDS011;65945;53.148;17.956;2023-11-18T05:11:50;27.10;;;12.60;;
77010;SDS011;65945;53.148;17.956;2023-11-18T05:14:17;24.50;;;12.10;;
77010;SDS011;65945;53.148;17.956;2023-11-18T05:16:43;29.90;;;13.90;;
77010;SDS011;65945;53.148;17.956;2023-11-18T05:19:10;26.50;;;13.00;;
77010;SDS011;65945;53.148;17.956;2023-11-18T05:21:37;25.20;;;12.90;;
77010;SDS011;65945;53.148;17.956;2023-11-18T05:24:03;26.60;;;13.90;;
77010;SDS011;65945;53.148;17.956;2023-11-18T05:26:30;23.80;;;12.60;;
77010;SDS011;65945;53.148;17.956;2023-11-18T05:28:57;22.30;;;10.80;;
77010;SDS011;65945;53.148;17.956;2023-11-18T05:31:24;26.50;;;11.50;;
77010;SDS011;65945;53.148;17.956;2023-11-18T05:33:50;25.40;;;13.20;;
77010;SDS011;65945;53.148;17.956;2023-11-18T05:36:21;26.20;;;13.00;;
77010;SDS011;65945;53.148;17.956;2023-11-18T05:38:54;26.10;;;11.90;;
77010;SDS011;65945;53.148;17.956;2023-11-18T05:41:20;26.60;;;13.30;;
77010;SDS011;65945;53.148;17.956;2023-11-18T05:43:54;23.50;;;12.40;;
77010;SDS011;65945;53.148;17.956;2023-11-18T05:46:24;22.50;;;11.00;;
77010;SDS011;65945;53.148;17.956;2023-11-18T05:48:52;25.10;;;12.30;;
77010;SDS011;65945;53.148;17.956;2023-11-18T05:51:22;24.10;;;12.80;;
77010;SDS011;65945;53.148;17.956;2023-11-18T05:53:50;22.20;;;11.20;;
77010;SDS011;65945;53.148;17.956;2023-11-18T05:56:18;24.10;;;12.30;;
77010;SDS011;65945;53.148;17.956;2023-11-18T05:58:48;23.50;;;12.50;;
77010;SDS011;65945;53.148;17.956;2023-11-18T06:01:15;22.40;;;11.10;;
77010;SDS011;65945;53.148;17.956;2023-11-18T06:03:43;26.90;;;11.60;;
77010;SDS011;65945;53.148;17.956;2023-11-18T06:06:10;21.70;;;11.70;;
77010;SDS011;65945;53.148;17.956;2023-11-18T06:08:39;25.20;;;12.60;;
77010;SDS011;65945;53.148;17.956;2023-11-18T06:11:08;20.70;;;9.80;;
77010;SDS011;65945;53.148;17.956;2023-11-18T06:13:47;22.70;;;11.70;;
77010;SDS011;65945;53.148;17.956;2023-11-18T06:16:16;24.40;;;12.10;;
77010;SDS011;65945;53.148;17.956;2023-11-18T06:18:54;24.00;;;12.10;;
77010;SDS011;65945;53.148;17.956;2023-11-18T06:21:23;20.10;;;9.70;;
77010;SDS011;65945;53.148;17.956;2023-11-18T06:23:51;23.00;;;12.00;;
77010;SDS011;65945;53.148;17.956;2023-11-18T06:26:17;20.80;;;10.40;;
77010;SDS011;65945;53.148;17.956;2023-11-18T06:28:45;23.90;;;12.00;;
77010;SDS011;65945;53.148;17.956;2023-11-18T06:31:12;24.00;;;11.90;;
77010;SDS011;65945;53.148;17.956;2023-11-18T06:33:43;24.90;;;12.50;;
77010;SDS011;65945;53.148;17.956;2023-11-18T06:38:38;24.20;;;11.50;;
77010;SDS011;65945;53.148;17.956;2023-11-18T06:41:05;25.60;;;11.90;;
77010;SDS011;65945;53.148;17.956;2023-11-18T06:43:35;22.60;;;11.70;;
77010;SDS011;65945;53.148;17.956;2023-11-18T06:46:21;24.70;;;11.60;;
77010;SDS011;65945;53.148;17.956;2023-11-18T06:48:57;24.70;;;12.70;;
77010;SDS011;65945;53.148;17.956;2023-11-18T06:51:25;28.00;;;12.20;;
77010;SDS011;65945;53.148;17.956;2023-11-18T06:53:55;23.60;;;11.70;;
77010;SDS011;65945;53.148;17.956;2023-11-18T06:56:24;22.70;;;11.10;;
77010;SDS011;65945;53.148;17.956;2023-11-18T06:58:51;24.80;;;12.10;;
77010;SDS011;65945;53.148;17.956;2023-11-18T07:01:18;38.30;;;15.60;;
77010;SDS011;65945;53.148;17.956;2023-11-18T07:03:46;28.50;;;12.60;;
77010;SDS011;65945;53.148;17.956;2023-11-18T07:06:20;27.30;;;11.70;;
77010;SDS011;65945;53.148;17.956;2023-11-18T07:08:53;35.00;;;13.70;;
77010;SDS011;65945;53.148;17.956;2023-11-18T07:11:27;33.10;;;13.80;;
77010;SDS011;65945;53.148;17.956;2023-11-18T07:13:54;34.50;;;13.30;;
77010;SDS011;65945;53.148;17.956;2023-11-18T07:16:25;27.90;;;13.30;;
77010;SDS011;65945;53.148;17.956;2023-11-18T07:18:52;25.00;;;12.20;;
77010;SDS011;65945;53.148;17.956;2023-11-18T07:21:19;33.50;;;15.70;;
77010;SDS011;65945;53.148;17.956;2023-11-18T07:23:46;36.90;;;16.40;;
77010;SDS011;65945;53.148;17.956;2023-11-18T07:26:13;31.70;;;15.10;;
77010;SDS011;65945;53.148;17.956;2023-11-18T07:28:42;32.10;;;12.80;;
77010;SDS011;65945;53.148;17.956;2023-11-18T07:31:10;26.90;;;12.50;;
77010;SDS011;65945;53.148;17.956;2023-11-18T07:33:37;31.00;;;14.80;;
77010;SDS011;65945;53.148;17.956;2023-11-18T07:36:03;34.90;;;16.10;;
77010;SDS011;65945;53.148;17.956;2023-11-18T07:38:32;36.90;;;15.90;;
77010;SDS011;65945;53.148;17.956;2023-11-18T07:41:01;30.40;;;13.20;;
77010;SDS011;65945;53.148;17.956;2023-11-18T07:43:29;33.10;;;13.50;;
77010;SDS011;65945;53.148;17.956;2023-11-18T07:45:56;29.40;;;13.80;;
77010;SDS011;65945;53.148;17.956;2023-11-18T07:48:23;33.10;;;14.30;;
77010;SDS011;65945;53.148;17.956;2023-11-18T07:50:49;33.60;;;15.10;;
77010;SDS011;65945;53.148;17.956;2023-11-18T07:53:17;36.80;;;15.90;;
77010;SDS011;65945;53.148;17.956;2023-11-18T07:55:43;34.00;;;17.00;;
77010;SDS011;65945;53.148;17.956;2023-11-18T07:58:11;27.80;;;13.40;;
77010;SDS011;65945;53.148;17.956;2023-11-18T08:00:42;29.50;;;13.90;;
77010;SDS011;65945;53.148;17.956;2023-11-18T08:03:12;34.20;;;15.10;;
77010;SDS011;65945;53.148;17.956;2023-11-18T08:05:43;32.90;;;16.40;;
77010;SDS011;65945;53.148;17.956;2023-11-18T08:08:14;26.50;;;12.10;;
77010;SDS011;65945;53.148;17.956;2023-11-18T08:10:43;23.90;;;11.70;;
77010;SDS011;65945;53.148;17.956;2023-11-18T08:13:11;24.30;;;10.30;;
77010;SDS011;65945;53.148;17.956;2023-11-18T08:15:38;28.90;;;13.30;;
77010;SDS011;65945;53.148;17.956;2023-11-18T08:18:06;27.30;;;13.90;;
77010;SDS011;65945;53.148;17.956;2023-11-18T08:20:36;25.20;;;13.10;;
77010;SDS011;65945;53.148;17.956;2023-11-18T08:23:04;33.90;;;16.50;;
77010;SDS011;65945;53.148;17.956;2023-11-18T08:25:31;34.60;;;15.60;;
77010;SDS011;65945;53.148;17.956;2023-11-18T08:28:01;36.60;;;16.80;;
77010;SDS011;65945;53.148;17.956;2023-11-18T08:30:28;34.00;;;14.20;;
77010;SDS011;65945;53.148;17.956;2023-11-18T08:32:55;28.60;;;13.60;;
77010;SDS011;65945;53.148;17.956;2023-11-18T08:35:21;21.60;;;10.50;;
77010;SDS011;65945;53.148;17.956;2023-11-18T08:37:48;21.50;;;10.00;;
77010;SDS011;65945;53.148;17.956;2023-11-18T08:40:15;24.50;;;12.10;;
77010;SDS011;65945;53.148;17.956;2023-11-18T08:45:15;18.60;;;8.20;;
77010;SDS011;65945;53.148;17.956;2023-11-18T08:47:43;23.40;;;10.30;;
77010;SDS011;65945;53.148;17.956;2023-11-18T08:50:10;16.60;;;7.90;;
77010;SDS011;65945;53.148;17.956;2023-11-18T08:52:39;26.80;;;10.30;;
77010;SDS011;65945;53.148;17.956;2023-11-18T08:55:10;20.00;;;10.50;;
77010;SDS011;65945;53.148;17.956;2023-11-18T08:57:44;20.60;;;9.90;;
77010;SDS011;65945;53.148;17.956;2023-11-18T09:00:27;24.00;;;10.70;;
77010;SDS011;65945;53.148;17.956;2023-11-18T09:03:14;17.60;;;8.20;;
77010;SDS011;65945;53.148;17.956;2023-11-18T09:05:55;26.70;;;13.40;;
77010;SDS011;65945;53.148;17.956;2023-11-18T09:10:53;27.40;;;14.70;;
77010;SDS011;65945;53.148;17.956;2023-11-18T09:13:21;26.00;;;14.40;;
77010;SDS011;65945;53.148;17.956;2023-11-18T09:15:49;24.60;;;13.40;;
77010;SDS011;65945;53.148;17.956;2023-11-18T09:18:16;28.10;;;14.00;;
77010;SDS011;65945;53.148;17.956;2023-11-18T09:20:44;25.30;;;13.30;;
77010;SDS011;65945;53.148;17.956;2023-11-18T09:23:13;27.00;;;13.90;;
77010;SDS011;65945;53.148;17.956;2023-11-18T09:25:42;28.50;;;14.60;;
77010;SDS011;65945;53.148;17.956;2023-11-18T09:28:14;21.80;;;11.90;;
77010;SDS011;65945;53.148;17.956;2023-11-18T09:30:42;26.80;;;13.50;;
77010;SDS011;65945;53.148;17.956;2023-11-18T09:33:24;28.30;;;16.00;;
77010;SDS011;65945;53.148;17.956;2023-11-18T09:35:52;23.30;;;13.50;;
77010;SDS011;65945;53.148;17.956;2023-11-18T09:38:25;26.40;;;12.20;;
77010;SDS011;65945;53.148;17.956;2023-11-18T09:40:56;18.60;;;11.30;;
77010;SDS011;65945;53.148;17.956;2023-11-18T09:43:24;17.10;;;10.30;;
77010;SDS011;65945;53.148;17.956;2023-11-18T09:45:56;21.70;;;11.40;;
77010;SDS011;65945;53.148;17.956;2023-11-18T09:48:29;20.50;;;11.10;;
77010;SDS011;65945;53.148;17.956;2023-11-18T09:50:56;20.50;;;11.20;;
77010;SDS011;65945;53.148;17.956;2023-11-18T09:53:25;19.40;;;11.20;;
77010;SDS011;65945;53.148;17.956;2023-11-18T09:55:59;18.10;;;10.50;;
77010;SDS011;65945;53.148;17.956;2023-11-18T09:58:37;18.20;;;10.70;;
77010;SDS011;65945;53.148;17.956;2023-11-18T10:01:10;18.80;;;10.20;;
77010;SDS011;65945;53.148;17.956;2023-11-18T10:03:40;16.90;;;9.40;;
77010;SDS011;65945;53.148;17.956;2023-11-18T10:06:09;17.10;;;9.00;;
77010;SDS011;65945;53.148;17.956;2023-11-18T10:08:38;15.80;;;9.80;;
77010;SDS011;65945;53.148;17.956;2023-11-18T10:11:05;13.50;;;8.10;;
77010;SDS011;65945;53.148;17.956;2023-11-18T10:13:35;16.90;;;8.90;;
77010;SDS011;65945;53.148;17.956;2023-11-18T10:16:07;17.00;;;9.10;;
77010;SDS011;65945;53.148;17.956;2023-11-18T10:18:34;14.70;;;7.70;;
77010;SDS011;65945;53.148;17.956;2023-11-18T10:21:03;16.30;;;9.40;;
77010;SDS011;65945;53.148;17.956;2023-11-18T10:23:38;16.70;;;8.90;;
77010;SDS011;65945;53.148;17.956;2023-11-18T10:26:05;13.80;;;8.40;;
77010;SDS011;65945;53.148;17.956;2023-11-18T10:28:34;14.20;;;7.70;;
77010;SDS011;65945;53.148;17.956;2023-11-18T10:31:07;14.80;;;8.10;;
77010;SDS011;65945;53.148;17.956;2023-11-18T10:33:36;14.00;;;7.70;;
77010;SDS011;65945;53.148;17.956;2023-11-18T10:36:05;12.40;;;7.00;;
77010;SDS011;65945;53.148;17.956;2023-11-18T10:38:39;16.30;;;8.00;;
77010;SDS011;65945;53.148;17.956;2023-11-18T10:41:09;12.90;;;8.10;;
77010;SDS011;65945;53.148;17.956;2023-11-18T10:43:38;14.60;;;8.20;;
77010;SDS011;65945;53.148;17.956;2023-11-18T10:46:08;11.80;;;6.80;;
77010;SDS011;65945;53.148;17.956;2023-11-18T10:48:46;12.80;;;6.40;;
77010;SDS011;65945;53.148;17.956;2023-11-18T10:51:15;12.80;;;7.10;;
77010;SDS011;65945;53.148;17.956;2023-11-18T10:53:53;14.50;;;7.10;;
77010;SDS011;65945;53.148;17.956;2023-11-18T10:56:25;20.70;;;8.60;;
77010;SDS011;65945;53.148;17.956;2023-11-18T10:58:59;14.00;;;5.90;;
77010;SDS011;65945;53.148;17.956;2023-11-18T11:01:34;17.30;;;8.20;;
77010;SDS011;65945;53.148;17.956;2023-11-18T11:04:08;16.70;;;8.20;;
77010;SDS011;65945;53.148;17.956;2023-11-18T11:06:46;13.60;;;7.10;;
77010;SDS011;65945;53.148;17.956;2023-11-18T11:09:21;13.70;;;7.60;;
77010;SDS011;65945;53.148;17.956;2023-11-18T11:11:54;11.70;;;6.30;;
77010;SDS011;65945;53.148;17.956;2023-11-18T11:14:26;24.10;;;12.20;;
77010;SDS011;65945;53.148;17.956;2023-11-18T11:17:06;35.70;;;18.70;;
77010;SDS011;65945;53.148;17.956;2023-11-18T11:28:22;12.50;;;6.50;;
77010;SDS011;65945;53.148;17.956;2023-11-18T11:30:55;10.90;;;6.60;;
77010;SDS011;65945;53.148;17.956;2023-11-18T11:33:34;13.20;;;7.40;;
77010;SDS011;65945;53.148;17.956;2023-11-18T11:36:11;16.00;;;7.30;;
77010;SDS011;65945;53.148;17.956;2023-11-18T11:38:42;11.90;;;6.30;;
77010;SDS011;65945;53.148;17.956;2023-11-18T11:41:12;11.20;;;6.30;;
77010;SDS011;65945;53.148;17.956;2023-11-18T11:43:47;12.60;;;6.70;;
77010;SDS011;65945;53.148;17.956;2023-11-18T11:46:15;11.40;;;6.00;;
77010;SDS011;65945;53.148;17.956;2023-11-18T11:48:49;11.80;;;7.30;;
77010;SDS011;65945;53.148;17.956;2023-11-18T11:51:24;10.00;;;6.20;;
77010;SDS011;65945;53.148;17.956;2023-11-18T11:54:00;14.00;;;7.50;;
77010;SDS011;65945;53.148;17.956;2023-11-18T11:56:44;16.10;;;7.10;;
77010;SDS011;65945;53.148;17.956;2023-11-18T11:59:16;11.00;;;6.40;;
77010;SDS011;65945;53.148;17.956;2023-11-18T12:01:43;14.10;;;7.40;;
77010;SDS011;65945;53.148;17.956;2023-11-18T12:04:16;12.50;;;6.90;;
77010;SDS011;65945;53.148;17.956;2023-11-18T12:06:54;13.60;;;6.00;;
77010;SDS011;65945;53.148;17.956;2023-11-18T12:09:22;12.90;;;7.40;;
77010;SDS011;65945;53.148;17.956;2023-11-18T12:11:59;12.40;;;7.40;;
77010;SDS011;65945;53.148;17.956;2023-11-18T12:14:27;11.40;;;6.60;;
77010;SDS011;65945;53.148;17.956;2023-11-18T12:19:30;12.70;;;6.40;;
77010;SDS011;65945;53.148;17.956;2023-11-18T12:22:02;14.00;;;7.50;;
77010;SDS011;65945;53.148;17.956;2023-11-18T12:24:39;13.10;;;7.50;;
77010;SDS011;65945;53.148;17.956;2023-11-18T12:27:06;15.30;;;7.90;;
77010;SDS011;65945;53.148;17.956;2023-11-18T12:29:42;15.50;;;7.50;;
77010;SDS011;65945;53.148;17.956;2023-11-18T12:32:12;14.00;;;7.60;;
77010;SDS011;65945;53.148;17.956;2023-11-18T12:35:18;12.00;;;5.60;;
77010;SDS011;65945;53.148;17.956;2023-11-18T12:43:42;11.10;;;6.40;;
77010;SDS011;65945;53.148;17.956;2023-11-18T12:49:45;19.50;;;8.20;;
77010;SDS011;65945;53.148;17.956;2023-11-18T12:52:16;11.00;;;6.30;;
77010;SDS011;65945;53.148;17.956;2023-11-18T12:54:45;13.60;;;7.30;;
77010;SDS011;65945;53.148;17.956;2023-11-18T12:57:19;14.50;;;6.80;;
77010;SDS011;65945;53.148;17.956;2023-11-18T12:59:49;13.20;;;6.80;;
77010;SDS011;65945;53.148;17.956;2023-11-18T13:02:16;10.80;;;6.70;;
77010;SDS011;65945;53.148;17.956;2023-11-18T13:04:46;11.90;;;6.80;;
77010;SDS011;65945;53.148;17.956;2023-11-18T13:07:16;10.80;;;6.40;;
77010;SDS011;65945;53.148;17.956;2023-11-18T13:09:51;13.50;;;7.00;;
77010;SDS011;65945;53.148;17.956;2023-11-18T13:12:20;12.90;;;7.50;;
77010;SDS011;65945;53.148;17.956;2023-11-18T13:14:50;22.30;;;10.40;;
77010;SDS011;65945;53.148;17.956;2023-11-18T13:17:17;16.00;;;8.50;;
77010;SDS011;65945;53.148;17.956;2023-11-18T13:19:44;18.60;;;9.20;;
77010;SDS011;65945;53.148;17.956;2023-11-18T13:22:13;21.80;;;12.20;;
77010;SDS011;65945;53.148;17.956;2023-11-18T13:24:41;16.10;;;7.30;;
77010;SDS011;65945;53.148;17.956;2023-11-18T13:27:16;12.90;;;7.80;;
77010;SDS011;65945;53.148;17.956;2023-11-18T13:29:44;11.90;;;7.20;;
77010;SDS011;65945;53.148;17.956;2023-11-18T13:32:12;14.70;;;8.00;;
77010;SDS011;65945;53.148;17.956;2023-11-18T13:34:39;17.10;;;8.70;;
77010;SDS011;65945;53.148;17.956;2023-11-18T13:37:08;15.80;;;8.70;;
77010;SDS011;65945;53.148;17.956;2023-11-18T13:39:39;19.00;;;8.90;;
77010;SDS011;65945;53.148;17.956;2023-11-18T13:42:23;16.70;;;8.80;;
77010;SDS011;65945;53.148;17.956;2023-11-18T13:45:02;16.80;;;8.30;;
77010;SDS011;65945;53.148;17.956;2023-11-18T13:47:34;15.60;;;8.40;;
77010;SDS011;65945;53.148;17.956;2023-11-18T13:50:01;14.70;;;7.90;;
77010;SDS011;65945;53.148;17.956;2023-11-18T13:52:28;15.30;;;8.00;;
77010;SDS011;65945;53.148;17.956;2023-11-18T13:54:57;14.20;;;7.40;;
77010;SDS011;65945;53.148;17.956;2023-11-18T13:57:23;29.70;;;11.60;;
77010;SDS011;65945;53.148;17.956;2023-11-18T13:59:50;17.70;;;8.20;;
77010;SDS011;65945;53.148;17.956;2023-11-18T14:02:17;17.60;;;8.80;;
77010;SDS011;65945;53.148;17.956;2023-11-18T14:04:44;23.30;;;11.70;;
77010;SDS011;65945;53.148;17.956;2023-11-18T14:07:14;24.70;;;12.70;;
77010;SDS011;65945;53.148;17.956;2023-11-18T14:09:42;31.90;;;21.60;;
77010;SDS011;65945;53.148;17.956;2023-11-18T14:12:12;44.00;;;23.00;;
77010;SDS011;65945;53.148;17.956;2023-11-18T14:14:40;45.80;;;25.20;;
77010;SDS011;65945;53.148;17.956;2023-11-18T14:17:06;38.70;;;20.90;;
77010;SDS011;65945;53.148;17.956;2023-11-18T14:19:36;42.40;;;20.70;;
77010;SDS011;65945;53.148;17.956;2023-11-18T14:22:04;35.30;;;18.00;;
77010;SDS011;65945;53.148;17.956;2023-11-18T14:24:33;51.30;;;28.90;;
77010;SDS011;65945;53.148;17.956;2023-11-18T14:27:00;37.40;;;20.10;;
77010;SDS011;65945;53.148;17.956;2023-11-18T14:29:27;26.70;;;14.40;;
77010;SDS011;65945;53.148;17.956;2023-11-18T14:31:54;25.00;;;13.10;;
77010;SDS011;65945;53.148;17.956;2023-11-18T14:34:21;26.20;;;12.70;;
77010;SDS011;65945;53.148;17.956;2023-11-18T14:36:47;21.50;;;12.10;;
77010;SDS011;65945;53.148;17.956;2023-11-18T14:39:15;22.20;;;12.40;;
77010;SDS011;65945;53.148;17.956;2023-11-18T14:41:44;23.70;;;15.10;;
77010;SDS011;65945;53.148;17.956;2023-11-18T14:44:12;35.70;;;15.50;;
77010;SDS011;65945;53.148;17.956;2023-11-18T14:46:38;30.20;;;14.80;;
77010;SDS011;65945;53.148;17.956;2023-11-18T14:49:07;24.80;;;13.40;;
77010;SDS011;65945;53.148;17.956;2023-11-18T14:51:34;36.80;;;17.60;;
77010;SDS011;65945;53.148;17.956;2023-11-18T14:54:02;42.00;;;20.60;;